sensor_id;sensor_type;location;lat;lon;timestamp;temperature;humidity
22852;DHT22;11592;45.460;9.240;2022-10-16T00:01:30;19.70;99.90
22852;DHT22;11592;45.460;9.240;2022-10-16T00:03:59;19.70;99.90
22852;DHT22;11592;45.460;9.240;2022-10-16T00:06:27;19.80;99.90
22852;DHT22;11592;45.460;9.240;2022-10-16T00:08:55;19.80;99.90
22852;DHT22;11592;45.460;9.240;2022-10-16T00:11:33;19.70;99.90
22852;DHT22;11592;45.460;9.240;2022-10-16T00:14:02;19.70;99.90
22852;DHT22;11592;45.460;9.240;2022-10-16T00:16:29;19.70;99.90
22852;DHT22;11592;45.460;9.240;2022-10-16T00:18:56;19.80;99.90
22852;DHT22;11592;45.460;9.240;2022-10-16T00:21:26;19.70;99.90
22852;DHT22;11592;45.460;9.240;2022-10-16T00:23:55;19.80;99.90
22852;DHT22;11592;45.460;9.240;2022-10-16T00:26:23;19.70;99.90
22852;DHT22;11592;45.460;9.240;2022-10-16T00:28:51;19.70;99.90
22852;DHT22;11592;45.460;9.240;2022-10-16T00:31:20;19.70;99.90
22852;DHT22;11592;45.460;9.240;2022-10-16T00:33:47;19.60;99.90
22852;DHT22;11592;45.460;9.240;2022-10-16T00:36:16;19.60;99.90
22852;DHT22;11592;45.460;9.240;2022-10-16T00:38:44;19.70;99.90
22852;DHT22;11592;45.460;9.240;2022-10-16T00:41:14;19.60;99.90
22852;DHT22;11592;45.460;9.240;2022-10-16T00:43:54;19.60;99.90
22852;DHT22;11592;45.460;9.240;2022-10-16T00:46:27;19.60;99.90
22852;DHT22;11592;45.460;9.240;2022-10-16T00:51:37;19.60;99.90
22852;DHT22;11592;45.460;9.240;2022-10-16T00:54:09;19.60;99.90
22852;DHT22;11592;45.460;9.240;2022-10-16T00:56:37;19.60;99.90
22852;DHT22;11592;45.460;9.240;2022-10-16T00:59:08;19.60;99.90
22852;DHT22;11592;45.460;9.240;2022-10-16T01:01:37;19.50;99.90
22852;DHT22;11592;45.460;9.240;2022-10-16T01:04:04;19.60;99.90
22852;DHT22;11592;45.460;9.240;2022-10-16T01:06:46;19.60;99.90
22852;DHT22;11592;45.460;9.240;2022-10-16T01:09:37;19.60;99.90
22852;DHT22;11592;45.460;9.240;2022-10-16T01:12:12;19.50;99.90
22852;DHT22;11592;45.460;9.240;2022-10-16T01:14:47;19.50;99.90
22852;DHT22;11592;45.460;9.240;2022-10-16T01:17:28;19.60;99.90
22852;DHT22;11592;45.460;9.240;2022-10-16T01:22:26;19.50;99.90
22852;DHT22;11592;45.460;9.240;2022-10-16T01:25:00;19.50;99.90
22852;DHT22;11592;45.460;9.240;2022-10-16T01:27:33;19.50;99.90
22852;DHT22;11592;45.460;9.240;2022-10-16T01:30:23;19.50;99.90
22852;DHT22;11592;45.460;9.240;2022-10-16T01:32:56;19.50;99.90
22852;DHT22;11592;45.460;9.240;2022-10-16T01:35:35;19.50;99.90
22852;DHT22;11592;45.460;9.240;2022-10-16T01:38:19;19.50;99.90
22852;DHT22;11592;45.460;9.240;2022-10-16T01:40:52;19.50;99.90
22852;DHT22;11592;45.460;9.240;2022-10-16T01:43:45;19.50;99.90
22852;DHT22;11592;45.460;9.240;2022-10-16T01:46:14;19.40;99.90
22852;DHT22;11592;45.460;9.240;2022-10-16T01:48:42;19.40;99.90
22852;DHT22;11592;45.460;9.240;2022-10-16T01:51:11;19.40;99.90
22852;DHT22;11592;45.460;9.240;2022-10-16T01:53:40;19.40;99.90
22852;DHT22;11592;45.460;9.240;2022-10-16T01:56:10;19.40;99.90
22852;DHT22;11592;45.460;9.240;2022-10-16T01:58:44;19.40;99.90
22852;DHT22;11592;45.460;9.240;2022-10-16T02:01:15;19.40;99.90
22852;DHT22;11592;45.460;9.240;2022-10-16T02:03:44;19.40;99.90
22852;DHT22;11592;45.460;9.240;2022-10-16T02:06:12;19.40;99.90
22852;DHT22;11592;45.460;9.240;2022-10-16T02:08:39;19.40;99.90
22852;DHT22;11592;45.460;9.240;2022-10-16T02:11:10;19.20;99.90
22852;DHT22;11592;45.460;9.240;2022-10-16T02:13:46;19.30;99.90
22852;DHT22;11592;45.460;9.240;2022-10-16T02:16:14;19.30;99.90
22852;DHT22;11592;45.460;9.240;2022-10-16T02:18:42;19.30;99.90
22852;DHT22;11592;45.460;9.240;2022-10-16T02:26:56;19.20;99.90
22852;DHT22;11592;45.460;9.240;2022-10-16T02:29:26;19.30;99.90
22852;DHT22;11592;45.460;9.240;2022-10-16T02:31:59;19.20;99.90
22852;DHT22;11592;45.460;9.240;2022-10-16T02:34:28;19.30;99.90
22852;DHT22;11592;45.460;9.240;2022-10-16T02:36:57;19.20;99.90
22852;DHT22;11592;45.460;9.240;2022-10-16T02:39:26;19.20;99.90
22852;DHT22;11592;45.460;9.240;2022-10-16T02:41:53;19.20;99.90
22852;DHT22;11592;45.460;9.240;2022-10-16T02:44:20;19.20;99.90
22852;DHT22;11592;45.460;9.240;2022-10-16T02:46:47;19.20;99.90
22852;DHT22;11592;45.460;9.240;2022-10-16T02:49:14;19.20;99.90
22852;DHT22;11592;45.460;9.240;2022-10-16T02:51:40;19.20;99.90
22852;DHT22;11592;45.460;9.240;2022-10-16T02:54:07;19.20;99.90
22852;DHT22;11592;45.460;9.240;2022-10-16T02:56:34;19.30;99.90
22852;DHT22;11592;45.460;9.240;2022-10-16T02:59:01;19.20;99.90
22852;DHT22;11592;45.460;9.240;2022-10-16T03:01:27;19.20;99.90
22852;DHT22;11592;45.460;9.240;2022-10-16T03:03:54;19.20;99.90
22852;DHT22;11592;45.460;9.240;2022-10-16T03:06:21;19.10;99.90
22852;DHT22;11592;45.460;9.240;2022-10-16T03:08:48;19.10;99.90
22852;DHT22;11592;45.460;9.240;2022-10-16T03:11:14;19.10;99.90
22852;DHT22;11592;45.460;9.240;2022-10-16T03:13:41;19.10;99.90
22852;DHT22;11592;45.460;9.240;2022-10-16T03:16:08;19.10;99.90
22852;DHT22;11592;45.460;9.240;2022-10-16T03:18:35;19.10;99.90
22852;DHT22;11592;45.460;9.240;2022-10-16T03:21:01;19.10;99.90
22852;DHT22;11592;45.460;9.240;2022-10-16T03:23:28;19.00;99.90
22852;DHT22;11592;45.460;9.240;2022-10-16T03:25:56;19.10;99.90
22852;DHT22;11592;45.460;9.240;2022-10-16T03:28:23;19.10;99.90
22852;DHT22;11592;45.460;9.240;2022-10-16T03:30:50;19.10;99.90
22852;DHT22;11592;45.460;9.240;2022-10-16T03:33:17;19.10;99.90
22852;DHT22;11592;45.460;9.240;2022-10-16T03:35:51;19.20;99.90
22852;DHT22;11592;45.460;9.240;2022-10-16T03:38:19;19.10;99.90
22852;DHT22;11592;45.460;9.240;2022-10-16T03:40:46;19.10;99.90
22852;DHT22;11592;45.460;9.240;2022-10-16T03:43:13;19.10;99.90
22852;DHT22;11592;45.460;9.240;2022-10-16T03:45:45;19.10;99.90
22852;DHT22;11592;45.460;9.240;2022-10-16T03:48:12;19.10;99.90
22852;DHT22;11592;45.460;9.240;2022-10-16T03:50:38;19.10;99.90
22852;DHT22;11592;45.460;9.240;2022-10-16T03:53:05;19.10;99.90
22852;DHT22;11592;45.460;9.240;2022-10-16T03:55:32;19.10;99.90
22852;DHT22;11592;45.460;9.240;2022-10-16T03:57:59;19.10;99.90
22852;DHT22;11592;45.460;9.240;2022-10-16T04:00:26;19.10;99.90
22852;DHT22;11592;45.460;9.240;2022-10-16T04:02:53;19.10;99.90
22852;DHT22;11592;45.460;9.240;2022-10-16T04:05:19;19.10;99.90
22852;DHT22;11592;45.460;9.240;2022-10-16T04:07:46;19.10;99.90
22852;DHT22;11592;45.460;9.240;2022-10-16T04:10:13;19.10;99.90
22852;DHT22;11592;45.460;9.240;2022-10-16T04:12:40;19.10;99.90
22852;DHT22;11592;45.460;9.240;2022-10-16T04:15:07;19.10;99.90
22852;DHT22;11592;45.460;9.240;2022-10-16T04:17:34;19.10;99.90
22852;DHT22;11592;45.460;9.240;2022-10-16T04:20:00;19.10;99.90
22852;DHT22;11592;45.460;9.240;2022-10-16T04:22:27;19.10;99.90
22852;DHT22;11592;45.460;9.240;2022-10-16T04:24:54;19.10;99.90
22852;DHT22;11592;45.460;9.240;2022-10-16T04:27:21;19.10;99.90
22852;DHT22;11592;45.460;9.240;2022-10-16T04:29:48;19.10;99.90
22852;DHT22;11592;45.460;9.240;2022-10-16T04:32:14;19.10;99.90
22852;DHT22;11592;45.460;9.240;2022-10-16T04:34:41;19.10;99.90
22852;DHT22;11592;45.460;9.240;2022-10-16T04:37:08;19.10;99.90
22852;DHT22;11592;45.460;9.240;2022-10-16T04:39:34;19.10;99.90
22852;DHT22;11592;45.460;9.240;2022-10-16T04:42:01;19.10;99.90
22852;DHT22;11592;45.460;9.240;2022-10-16T04:44:29;19.10;99.90
22852;DHT22;11592;45.460;9.240;2022-10-16T04:46:55;19.10;99.90
22852;DHT22;11592;45.460;9.240;2022-10-16T04:49:22;19.10;99.90
22852;DHT22;11592;45.460;9.240;2022-10-16T04:51:49;19.10;99.90
22852;DHT22;11592;45.460;9.240;2022-10-16T04:54:16;19.10;99.90
22852;DHT22;11592;45.460;9.240;2022-10-16T04:56:42;19.00;99.90
22852;DHT22;11592;45.460;9.240;2022-10-16T04:59:14;19.00;99.90
22852;DHT22;11592;45.460;9.240;2022-10-16T05:01:41;19.00;99.90
22852;DHT22;11592;45.460;9.240;2022-10-16T05:04:09;19.00;99.90
22852;DHT22;11592;45.460;9.240;2022-10-16T05:06:36;19.00;99.90
22852;DHT22;11592;45.460;9.240;2022-10-16T05:09:03;19.00;99.90
22852;DHT22;11592;45.460;9.240;2022-10-16T05:11:30;19.00;99.90
22852;DHT22;11592;45.460;9.240;2022-10-16T05:13:56;19.00;99.90
22852;DHT22;11592;45.460;9.240;2022-10-16T05:16:23;18.90;99.90
22852;DHT22;11592;45.460;9.240;2022-10-16T05:18:51;18.90;99.90
22852;DHT22;11592;45.460;9.240;2022-10-16T05:21:29;19.00;99.90
22852;DHT22;11592;45.460;9.240;2022-10-16T05:23:56;18.90;99.90
22852;DHT22;11592;45.460;9.240;2022-10-16T05:26:23;18.90;99.90
22852;DHT22;11592;45.460;9.240;2022-10-16T05:28:50;18.90;99.90
22852;DHT22;11592;45.460;9.240;2022-10-16T05:31:17;18.90;99.90
22852;DHT22;11592;45.460;9.240;2022-10-16T05:33:43;18.90;99.90
22852;DHT22;11592;45.460;9.240;2022-10-16T05:36:10;18.90;99.90
22852;DHT22;11592;45.460;9.240;2022-10-16T05:38:37;18.80;99.90
22852;DHT22;11592;45.460;9.240;2022-10-16T05:41:05;18.80;99.90
22852;DHT22;11592;45.460;9.240;2022-10-16T05:43:32;18.90;99.90
22852;DHT22;11592;45.460;9.240;2022-10-16T05:46:03;18.80;99.90
22852;DHT22;11592;45.460;9.240;2022-10-16T05:48:31;18.90;99.90
22852;DHT22;11592;45.460;9.240;2022-10-16T05:51:04;18.90;99.90
22852;DHT22;11592;45.460;9.240;2022-10-16T05:53:33;18.90;99.90
22852;DHT22;11592;45.460;9.240;2022-10-16T05:56:00;18.90;99.90
22852;DHT22;11592;45.460;9.240;2022-10-16T05:58:35;18.90;99.90
22852;DHT22;11592;45.460;9.240;2022-10-16T06:01:03;18.90;99.90
22852;DHT22;11592;45.460;9.240;2022-10-16T06:03:31;18.90;99.90
22852;DHT22;11592;45.460;9.240;2022-10-16T06:05:57;18.90;99.90
22852;DHT22;11592;45.460;9.240;2022-10-16T06:08:25;18.90;99.90
22852;DHT22;11592;45.460;9.240;2022-10-16T06:11:06;18.90;99.90
22852;DHT22;11592;45.460;9.240;2022-10-16T06:13:34;18.90;99.90
22852;DHT22;11592;45.460;9.240;2022-10-16T06:16:01;18.90;99.90
22852;DHT22;11592;45.460;9.240;2022-10-16T06:18:28;18.90;99.90
22852;DHT22;11592;45.460;9.240;2022-10-16T06:20:56;19.00;99.90
22852;DHT22;11592;45.460;9.240;2022-10-16T06:23:23;19.00;99.90
22852;DHT22;11592;45.460;9.240;2022-10-16T06:25:50;19.00;99.90
22852;DHT22;11592;45.460;9.240;2022-10-16T06:28:17;19.00;99.90
22852;DHT22;11592;45.460;9.240;2022-10-16T06:30:44;19.00;99.90
22852;DHT22;11592;45.460;9.240;2022-10-16T06:33:12;19.10;99.90
22852;DHT22;11592;45.460;9.240;2022-10-16T06:35:39;19.10;99.90
22852;DHT22;11592;45.460;9.240;2022-10-16T06:38:06;19.10;99.90
22852;DHT22;11592;45.460;9.240;2022-10-16T06:40:33;19.10;99.90
22852;DHT22;11592;45.460;9.240;2022-10-16T06:43:00;19.10;99.90
22852;DHT22;11592;45.460;9.240;2022-10-16T06:45:26;19.10;99.90
22852;DHT22;11592;45.460;9.240;2022-10-16T06:47:53;19.20;99.90
22852;DHT22;11592;45.460;9.240;2022-10-16T06:50:20;19.20;99.90
22852;DHT22;11592;45.460;9.240;2022-10-16T06:52:47;19.20;99.90
22852;DHT22;11592;45.460;9.240;2022-10-16T06:55:14;19.20;99.90
22852;DHT22;11592;45.460;9.240;2022-10-16T06:57:41;19.30;99.90
22852;DHT22;11592;45.460;9.240;2022-10-16T07:00:08;19.30;99.90
22852;DHT22;11592;45.460;9.240;2022-10-16T07:02:35;19.30;99.90
22852;DHT22;11592;45.460;9.240;2022-10-16T07:05:02;19.30;99.90
22852;DHT22;11592;45.460;9.240;2022-10-16T07:07:29;19.40;99.90
22852;DHT22;11592;45.460;9.240;2022-10-16T07:09:55;19.40;99.90
22852;DHT22;11592;45.460;9.240;2022-10-16T07:12:22;19.40;99.90
22852;DHT22;11592;45.460;9.240;2022-10-16T07:14:49;19.40;99.90
22852;DHT22;11592;45.460;9.240;2022-10-16T07:17:18;19.40;99.90
22852;DHT22;11592;45.460;9.240;2022-10-16T07:19:45;19.40;99.90
22852;DHT22;11592;45.460;9.240;2022-10-16T07:22:12;19.40;99.90
22852;DHT22;11592;45.460;9.240;2022-10-16T07:24:38;19.40;99.90
22852;DHT22;11592;45.460;9.240;2022-10-16T07:27:05;19.40;99.90
22852;DHT22;11592;45.460;9.240;2022-10-16T07:29:32;19.40;99.90
22852;DHT22;11592;45.460;9.240;2022-10-16T07:31:59;19.50;99.90
22852;DHT22;11592;45.460;9.240;2022-10-16T07:34:26;19.50;99.90
22852;DHT22;11592;45.460;9.240;2022-10-16T07:36:53;19.50;99.90
22852;DHT22;11592;45.460;9.240;2022-10-16T07:39:19;19.60;99.90
22852;DHT22;11592;45.460;9.240;2022-10-16T07:41:46;19.50;99.90
22852;DHT22;11592;45.460;9.240;2022-10-16T07:44:13;19.60;99.90
22852;DHT22;11592;45.460;9.240;2022-10-16T07:46:41;19.60;99.90
22852;DHT22;11592;45.460;9.240;2022-10-16T07:49:09;19.70;99.90
22852;DHT22;11592;45.460;9.240;2022-10-16T07:51:35;19.70;99.90
22852;DHT22;11592;45.460;9.240;2022-10-16T07:54:02;19.80;99.90
22852;DHT22;11592;45.460;9.240;2022-10-16T07:56:31;19.90;99.90
22852;DHT22;11592;45.460;9.240;2022-10-16T07:58:58;19.90;99.90
22852;DHT22;11592;45.460;9.240;2022-10-16T08:01:25;19.90;99.90
22852;DHT22;11592;45.460;9.240;2022-10-16T08:03:52;20.00;99.90
22852;DHT22;11592;45.460;9.240;2022-10-16T08:06:20;20.00;99.90
22852;DHT22;11592;45.460;9.240;2022-10-16T08:08:53;20.10;99.90
22852;DHT22;11592;45.460;9.240;2022-10-16T08:11:20;20.10;99.90
22852;DHT22;11592;45.460;9.240;2022-10-16T08:13:47;20.10;99.90
22852;DHT22;11592;45.460;9.240;2022-10-16T08:16:14;20.20;99.90
22852;DHT22;11592;45.460;9.240;2022-10-16T08:18:41;20.20;99.90
22852;DHT22;11592;45.460;9.240;2022-10-16T08:21:16;20.20;99.90
22852;DHT22;11592;45.460;9.240;2022-10-16T08:23:47;20.30;99.90
22852;DHT22;11592;45.460;9.240;2022-10-16T08:26:22;20.30;99.90
22852;DHT22;11592;45.460;9.240;2022-10-16T08:28:50;20.30;99.90
22852;DHT22;11592;45.460;9.240;2022-10-16T08:31:17;20.30;99.90
22852;DHT22;11592;45.460;9.240;2022-10-16T08:33:45;20.40;99.90
22852;DHT22;11592;45.460;9.240;2022-10-16T08:36:15;20.50;99.90
22852;DHT22;11592;45.460;9.240;2022-10-16T08:38:42;20.60;99.90
22852;DHT22;11592;45.460;9.240;2022-10-16T08:46:50;20.80;99.90
22852;DHT22;11592;45.460;9.240;2022-10-16T08:49:20;20.80;99.90
22852;DHT22;11592;45.460;9.240;2022-10-16T08:51:47;20.80;99.90
22852;DHT22;11592;45.460;9.240;2022-10-16T08:56:49;20.90;99.90
22852;DHT22;11592;45.460;9.240;2022-10-16T08:59:17;21.00;99.90
22852;DHT22;11592;45.460;9.240;2022-10-16T09:01:46;21.10;99.90
22852;DHT22;11592;45.460;9.240;2022-10-16T09:07:10;21.10;99.90
22852;DHT22;11592;45.460;9.240;2022-10-16T09:10:03;21.20;99.90
22852;DHT22;11592;45.460;9.240;2022-10-16T09:12:40;21.20;99.90
22852;DHT22;11592;45.460;9.240;2022-10-16T09:23:28;21.30;99.90
22852;DHT22;11592;45.460;9.240;2022-10-16T09:25:56;21.40;99.90
22852;DHT22;11592;45.460;9.240;2022-10-16T09:28:24;21.40;99.90
22852;DHT22;11592;45.460;9.240;2022-10-16T09:30:51;21.50;99.90
22852;DHT22;11592;45.460;9.240;2022-10-16T09:33:21;21.60;99.90
22852;DHT22;11592;45.460;9.240;2022-10-16T09:35:51;21.70;99.90
22852;DHT22;11592;45.460;9.240;2022-10-16T09:38:33;21.80;99.90
22852;DHT22;11592;45.460;9.240;2022-10-16T09:41:14;21.90;99.90
22852;DHT22;11592;45.460;9.240;2022-10-16T09:43:56;22.10;99.90
22852;DHT22;11592;45.460;9.240;2022-10-16T09:46:35;22.30;99.90
22852;DHT22;11592;45.460;9.240;2022-10-16T09:49:05;22.40;99.90
22852;DHT22;11592;45.460;9.240;2022-10-16T09:51:34;22.50;99.90
22852;DHT22;11592;45.460;9.240;2022-10-16T09:54:20;22.60;99.90
22852;DHT22;11592;45.460;9.240;2022-10-16T09:56:48;22.70;99.90
22852;DHT22;11592;45.460;9.240;2022-10-16T09:59:22;22.80;99.90
22852;DHT22;11592;45.460;9.240;2022-10-16T10:01:54;23.00;99.90
22852;DHT22;11592;45.460;9.240;2022-10-16T10:04:23;23.10;99.90
22852;DHT22;11592;45.460;9.240;2022-10-16T10:06:53;23.20;99.90
22852;DHT22;11592;45.460;9.240;2022-10-16T10:09:28;23.30;99.90
22852;DHT22;11592;45.460;9.240;2022-10-16T10:11:59;23.20;99.90
22852;DHT22;11592;45.460;9.240;2022-10-16T10:14:43;23.20;99.90
22852;DHT22;11592;45.460;9.240;2022-10-16T10:17:14;23.20;99.90
22852;DHT22;11592;45.460;9.240;2022-10-16T10:22:43;23.20;99.90
22852;DHT22;11592;45.460;9.240;2022-10-16T10:25:19;23.00;99.90
22852;DHT22;11592;45.460;9.240;2022-10-16T10:27:52;23.10;99.90
22852;DHT22;11592;45.460;9.240;2022-10-16T10:36:41;23.10;99.90
22852;DHT22;11592;45.460;9.240;2022-10-16T10:39:11;23.20;99.90
22852;DHT22;11592;45.460;9.240;2022-10-16T10:41:54;23.20;99.90
22852;DHT22;11592;45.460;9.240;2022-10-16T10:54:57;23.20;99.90
22852;DHT22;11592;45.460;9.240;2022-10-16T10:57:39;23.30;99.90
22852;DHT22;11592;45.460;9.240;2022-10-16T11:00:30;23.30;99.90
22852;DHT22;11592;45.460;9.240;2022-10-16T11:03:24;23.50;99.90
22852;DHT22;11592;45.460;9.240;2022-10-16T11:06:06;23.60;99.90
22852;DHT22;11592;45.460;9.240;2022-10-16T11:09:00;23.70;99.90
22852;DHT22;11592;45.460;9.240;2022-10-16T11:11:35;23.80;99.90
22852;DHT22;11592;45.460;9.240;2022-10-16T11:14:22;24.10;99.90
22852;DHT22;11592;45.460;9.240;2022-10-16T11:19:37;25.10;99.90
22852;DHT22;11592;45.460;9.240;2022-10-16T11:24:59;26.50;99.90
22852;DHT22;11592;45.460;9.240;2022-10-16T11:27:41;28.10;99.90
22852;DHT22;11592;45.460;9.240;2022-10-16T11:30:20;28.50;99.90
22852;DHT22;11592;45.460;9.240;2022-10-16T11:33:03;28.90;99.90
22852;DHT22;11592;45.460;9.240;2022-10-16T11:38:20;31.50;97.50
22852;DHT22;11592;45.460;9.240;2022-10-16T11:40:55;31.20;97.90
22852;DHT22;11592;45.460;9.240;2022-10-16T11:43:33;30.90;97.80
22852;DHT22;11592;45.460;9.240;2022-10-16T11:46:10;30.80;97.00
22852;DHT22;11592;45.460;9.240;2022-10-16T11:48:50;30.20;97.10
22852;DHT22;11592;45.460;9.240;2022-10-16T11:51:40;29.70;97.80
22852;DHT22;11592;45.460;9.240;2022-10-16T11:54:17;29.50;98.60
22852;DHT22;11592;45.460;9.240;2022-10-16T11:56:50;29.50;98.00
22852;DHT22;11592;45.460;9.240;2022-10-16T11:59:27;30.30;97.90
22852;DHT22;11592;45.460;9.240;2022-10-16T12:02:25;30.30;96.90
22852;DHT22;11592;45.460;9.240;2022-10-16T12:08:03;30.20;97.00
22852;DHT22;11592;45.460;9.240;2022-10-16T12:10:30;30.20;97.70
22852;DHT22;11592;45.460;9.240;2022-10-16T12:13:26;29.80;98.10
22852;DHT22;11592;45.460;9.240;2022-10-16T12:15:52;30.80;97.80
22852;DHT22;11592;45.460;9.240;2022-10-16T12:18:30;32.40;94.60
22852;DHT22;11592;45.460;9.240;2022-10-16T12:20:58;33.40;93.40
22852;DHT22;11592;45.460;9.240;2022-10-16T12:23:26;33.10;93.70
22852;DHT22;11592;45.460;9.240;2022-10-16T12:25:58;33.40;92.90
22852;DHT22;11592;45.460;9.240;2022-10-16T12:28:27;34.30;91.60
22852;DHT22;11592;45.460;9.240;2022-10-16T12:31:05;34.20;91.10
22852;DHT22;11592;45.460;9.240;2022-10-16T12:33:35;33.40;92.40
22852;DHT22;11592;45.460;9.240;2022-10-16T12:36:12;33.20;92.50
22852;DHT22;11592;45.460;9.240;2022-10-16T12:38:47;33.70;92.10
22852;DHT22;11592;45.460;9.240;2022-10-16T12:41:25;33.90;91.90
22852;DHT22;11592;45.460;9.240;2022-10-16T12:43:53;34.30;91.50
22852;DHT22;11592;45.460;9.240;2022-10-16T12:48:50;35.90;90.50
22852;DHT22;11592;45.460;9.240;2022-10-16T12:51:36;36.20;88.60
22852;DHT22;11592;45.460;9.240;2022-10-16T13:02:06;36.60;84.30
22852;DHT22;11592;45.460;9.240;2022-10-16T13:28:10;35.90;75.50
22852;DHT22;11592;45.460;9.240;2022-10-16T13:30:50;36.10;78.00
22852;DHT22;11592;45.460;9.240;2022-10-16T13:35:54;37.20;72.70
22852;DHT22;11592;45.460;9.240;2022-10-16T13:38:24;37.70;73.50
22852;DHT22;11592;45.460;9.240;2022-10-16T13:40:59;37.80;70.80
22852;DHT22;11592;45.460;9.240;2022-10-16T13:46:12;37.80;70.00
22852;DHT22;11592;45.460;9.240;2022-10-16T13:48:40;37.00;71.10
22852;DHT22;11592;45.460;9.240;2022-10-16T13:51:16;36.20;73.40
22852;DHT22;11592;45.460;9.240;2022-10-16T13:53:45;36.10;74.10
22852;DHT22;11592;45.460;9.240;2022-10-16T13:56:14;36.30;72.60
22852;DHT22;11592;45.460;9.240;2022-10-16T13:58:41;36.70;71.80
22852;DHT22;11592;45.460;9.240;2022-10-16T14:01:20;36.70;75.20
22852;DHT22;11592;45.460;9.240;2022-10-16T14:04:04;36.20;72.40
22852;DHT22;11592;45.460;9.240;2022-10-16T14:06:32;35.10;73.20
22852;DHT22;11592;45.460;9.240;2022-10-16T14:11:54;33.10;77.20
22852;DHT22;11592;45.460;9.240;2022-10-16T14:14:22;32.10;79.40
22852;DHT22;11592;45.460;9.240;2022-10-16T14:16:49;31.50;81.20
22852;DHT22;11592;45.460;9.240;2022-10-16T14:19:27;31.00;82.80
22852;DHT22;11592;45.460;9.240;2022-10-16T14:21:56;30.10;85.20
22852;DHT22;11592;45.460;9.240;2022-10-16T14:26:52;28.20;90.20
22852;DHT22;11592;45.460;9.240;2022-10-16T14:29:24;27.70;91.40
22852;DHT22;11592;45.460;9.240;2022-10-16T14:31:59;27.40;92.30
22852;DHT22;11592;45.460;9.240;2022-10-16T14:34:32;27.20;92.90
22852;DHT22;11592;45.460;9.240;2022-10-16T14:37:07;27.20;93.60
22852;DHT22;11592;45.460;9.240;2022-10-16T14:39:35;27.40;93.80
22852;DHT22;11592;45.460;9.240;2022-10-16T14:42:02;27.50;93.80
22852;DHT22;11592;45.460;9.240;2022-10-16T14:44:33;27.50;93.80
22852;DHT22;11592;45.460;9.240;2022-10-16T14:47:13;27.50;93.90
22852;DHT22;11592;45.460;9.240;2022-10-16T14:49:41;27.20;94.70
22852;DHT22;11592;45.460;9.240;2022-10-16T14:52:11;27.20;94.90
22852;DHT22;11592;45.460;9.240;2022-10-16T14:54:38;27.10;94.90
22852;DHT22;11592;45.460;9.240;2022-10-16T14:57:05;26.70;95.40
22852;DHT22;11592;45.460;9.240;2022-10-16T14:59:40;26.50;96.10
22852;DHT22;11592;45.460;9.240;2022-10-16T15:04:48;26.40;96.10
22852;DHT22;11592;45.460;9.240;2022-10-16T15:07:15;26.20;96.60
22852;DHT22;11592;45.460;9.240;2022-10-16T15:09:41;26.10;97.10
22852;DHT22;11592;45.460;9.240;2022-10-16T15:12:15;26.00;97.50
22852;DHT22;11592;45.460;9.240;2022-10-16T15:14:42;26.20;97.80
22852;DHT22;11592;45.460;9.240;2022-10-16T15:17:10;26.30;97.90
22852;DHT22;11592;45.460;9.240;2022-10-16T15:19:38;26.00;97.90
22852;DHT22;11592;45.460;9.240;2022-10-16T15:22:04;25.80;98.70
22852;DHT22;11592;45.460;9.240;2022-10-16T15:24:31;25.80;99.40
22852;DHT22;11592;45.460;9.240;2022-10-16T15:26:58;25.70;99.90
22852;DHT22;11592;45.460;9.240;2022-10-16T15:29:25;25.60;99.90
22852;DHT22;11592;45.460;9.240;2022-10-16T15:31:51;25.50;99.90
22852;DHT22;11592;45.460;9.240;2022-10-16T15:34:18;25.40;99.90
22852;DHT22;11592;45.460;9.240;2022-10-16T15:36:46;25.40;99.90
22852;DHT22;11592;45.460;9.240;2022-10-16T15:39:16;25.30;99.90
22852;DHT22;11592;45.460;9.240;2022-10-16T15:41:44;25.20;99.90
22852;DHT22;11592;45.460;9.240;2022-10-16T15:44:14;25.20;99.90
22852;DHT22;11592;45.460;9.240;2022-10-16T15:46:41;25.00;99.90
22852;DHT22;11592;45.460;9.240;2022-10-16T15:49:08;24.90;99.90
22852;DHT22;11592;45.460;9.240;2022-10-16T15:51:38;24.90;99.90
22852;DHT22;11592;45.460;9.240;2022-10-16T15:54:06;24.90;99.90
22852;DHT22;11592;45.460;9.240;2022-10-16T15:56:33;24.90;99.90
22852;DHT22;11592;45.460;9.240;2022-10-16T15:59:00;24.90;99.90
22852;DHT22;11592;45.460;9.240;2022-10-16T16:01:28;24.80;99.90
22852;DHT22;11592;45.460;9.240;2022-10-16T16:03:58;24.60;99.90
22852;DHT22;11592;45.460;9.240;2022-10-16T16:06:25;24.40;99.90
22852;DHT22;11592;45.460;9.240;2022-10-16T16:08:52;24.30;99.90
22852;DHT22;11592;45.460;9.240;2022-10-16T16:11:19;24.20;99.90
22852;DHT22;11592;45.460;9.240;2022-10-16T16:13:46;24.00;99.90
22852;DHT22;11592;45.460;9.240;2022-10-16T16:16:15;23.90;99.90
22852;DHT22;11592;45.460;9.240;2022-10-16T16:18:43;23.80;99.90
22852;DHT22;11592;45.460;9.240;2022-10-16T16:21:11;23.70;99.90
22852;DHT22;11592;45.460;9.240;2022-10-16T16:23:38;23.60;99.90
22852;DHT22;11592;45.460;9.240;2022-10-16T16:26:13;23.50;99.90
22852;DHT22;11592;45.460;9.240;2022-10-16T16:28:41;23.40;99.90
22852;DHT22;11592;45.460;9.240;2022-10-16T16:31:08;23.20;99.90
22852;DHT22;11592;45.460;9.240;2022-10-16T16:33:35;23.00;99.90
22852;DHT22;11592;45.460;9.240;2022-10-16T16:36:04;22.90;99.90
22852;DHT22;11592;45.460;9.240;2022-10-16T16:38:35;22.90;99.90
22852;DHT22;11592;45.460;9.240;2022-10-16T16:41:13;22.80;99.90
22852;DHT22;11592;45.460;9.240;2022-10-16T16:43:40;22.80;99.90
22852;DHT22;11592;45.460;9.240;2022-10-16T16:46:07;22.70;99.90
22852;DHT22;11592;45.460;9.240;2022-10-16T16:48:34;22.60;99.90
22852;DHT22;11592;45.460;9.240;2022-10-16T16:51:06;22.40;99.90
22852;DHT22;11592;45.460;9.240;2022-10-16T16:53:35;22.30;99.90
22852;DHT22;11592;45.460;9.240;2022-10-16T16:56:05;22.30;99.90
22852;DHT22;11592;45.460;9.240;2022-10-16T16:58:33;22.20;99.90
22852;DHT22;11592;45.460;9.240;2022-10-16T17:01:01;22.20;99.90
22852;DHT22;11592;45.460;9.240;2022-10-16T17:03:49;22.20;99.90
22852;DHT22;11592;45.460;9.240;2022-10-16T17:06:18;21.70;99.90
22852;DHT22;11592;45.460;9.240;2022-10-16T17:08:47;22.00;99.90
22852;DHT22;11592;45.460;9.240;2022-10-16T17:11:16;21.90;99.90
22852;DHT22;11592;45.460;9.240;2022-10-16T17:13:43;21.90;99.90
22852;DHT22;11592;45.460;9.240;2022-10-16T17:16:10;21.80;99.90
22852;DHT22;11592;45.460;9.240;2022-10-16T17:18:37;21.80;99.90
22852;DHT22;11592;45.460;9.240;2022-10-16T17:21:06;21.80;99.90
22852;DHT22;11592;45.460;9.240;2022-10-16T17:23:34;21.80;99.90
22852;DHT22;11592;45.460;9.240;2022-10-16T17:26:05;21.80;99.90
22852;DHT22;11592;45.460;9.240;2022-10-16T17:28:32;21.80;99.90
22852;DHT22;11592;45.460;9.240;2022-10-16T17:31:16;21.80;99.90
22852;DHT22;11592;45.460;9.240;2022-10-16T17:33:44;21.80;99.90
22852;DHT22;11592;45.460;9.240;2022-10-16T17:36:12;21.70;99.90
22852;DHT22;11592;45.460;9.240;2022-10-16T17:38:41;21.60;99.90